sensor_id;sensor_type;location;lat;lon;timestamp;temperature;humidity
64012;DHT22;50211;52.768;12.124;2022-11-15T00:00:27;3.20;99.90
64012;DHT22;50211;52.768;12.124;2022-11-15T00:02:53;3.30;99.90
64012;DHT22;50211;52.768;12.124;2022-11-15T00:05:19;3.30;99.90
64012;DHT22;50211;52.768;12.124;2022-11-15T00:07:45;3.30;99.90
64012;DHT22;50211;52.768;12.124;2022-11-15T00:10:11;3.40;99.90
64012;DHT22;50211;52.768;12.124;2022-11-15T00:12:37;3.50;99.90
64012;DHT22;50211;52.768;12.124;2022-11-15T00:15:03;3.50;99.90
64012;DHT22;50211;52.768;12.124;2022-11-15T00:17:28;3.60;99.90
64012;DHT22;50211;52.768;12.124;2022-11-15T00:19:54;3.60;99.90
64012;DHT22;50211;52.768;12.124;2022-11-15T00:22:20;3.60;99.90
64012;DHT22;50211;52.768;12.124;2022-11-15T00:24:45;3.50;99.90
64012;DHT22;50211;52.768;12.124;2022-11-15T00:27:11;3.50;99.90
64012;DHT22;50211;52.768;12.124;2022-11-15T00:29:37;3.50;99.90
64012;DHT22;50211;52.768;12.124;2022-11-15T00:32:04;3.50;99.90
64012;DHT22;50211;52.768;12.124;2022-11-15T00:34:30;3.50;99.90
64012;DHT22;50211;52.768;12.124;2022-11-15T00:36:55;3.60;99.90
64012;DHT22;50211;52.768;12.124;2022-11-15T00:39:21;3.60;99.90
64012;DHT22;50211;52.768;12.124;2022-11-15T00:41:47;3.70;99.90
64012;DHT22;50211;52.768;12.124;2022-11-15T00:44:12;3.70;99.90
64012;DHT22;50211;52.768;12.124;2022-11-15T00:46:37;3.70;99.90
64012;DHT22;50211;52.768;12.124;2022-11-15T00:49:03;3.70;99.90
64012;DHT22;50211;52.768;12.124;2022-11-15T00:51:29;3.70;99.90
64012;DHT22;50211;52.768;12.124;2022-11-15T00:53:55;3.70;99.90
64012;DHT22;50211;52.768;12.124;2022-11-15T00:56:20;3.70;99.90
64012;DHT22;50211;52.768;12.124;2022-11-15T00:58:46;3.70;99.90
64012;DHT22;50211;52.768;12.124;2022-11-15T01:01:13;3.60;99.90
64012;DHT22;50211;52.768;12.124;2022-11-15T01:03:40;3.50;99.90
64012;DHT22;50211;52.768;12.124;2022-11-15T01:06:07;3.50;99.90
64012;DHT22;50211;52.768;12.124;2022-11-15T01:08:33;3.50;99.90
64012;DHT22;50211;52.768;12.124;2022-11-15T01:11:03;3.40;99.90
64012;DHT22;50211;52.768;12.124;2022-11-15T01:13:30;3.40;99.90
64012;DHT22;50211;52.768;12.124;2022-11-15T01:15:56;3.40;99.90
64012;DHT22;50211;52.768;12.124;2022-11-15T01:18:22;3.30;99.90
64012;DHT22;50211;52.768;12.124;2022-11-15T01:20:47;3.30;99.90
64012;DHT22;50211;52.768;12.124;2022-11-15T01:23:13;3.30;99.90
64012;DHT22;50211;52.768;12.124;2022-11-15T01:25:38;3.30;99.90
64012;DHT22;50211;52.768;12.124;2022-11-15T01:28:04;3.30;99.90
64012;DHT22;50211;52.768;12.124;2022-11-15T01:30:29;3.30;99.90
64012;DHT22;50211;52.768;12.124;2022-11-15T01:32:55;3.30;99.90
64012;DHT22;50211;52.768;12.124;2022-11-15T01:35:20;3.30;99.90
64012;DHT22;50211;52.768;12.124;2022-11-15T01:37:46;3.20;99.90
64012;DHT22;50211;52.768;12.124;2022-11-15T01:40:11;3.10;99.90
64012;DHT22;50211;52.768;12.124;2022-11-15T01:42:37;2.90;99.90
64012;DHT22;50211;52.768;12.124;2022-11-15T01:45:03;2.60;99.90
64012;DHT22;50211;52.768;12.124;2022-11-15T01:47:35;2.50;99.90
64012;DHT22;50211;52.768;12.124;2022-11-15T01:50:10;2.50;99.90
64012;DHT22;50211;52.768;12.124;2022-11-15T01:52:37;2.50;99.90
64012;DHT22;50211;52.768;12.124;2022-11-15T01:55:14;2.40;99.90
64012;DHT22;50211;52.768;12.124;2022-11-15T01:57:42;2.40;99.90
64012;DHT22;50211;52.768;12.124;2022-11-15T02:00:08;2.40;99.90
64012;DHT22;50211;52.768;12.124;2022-11-15T02:02:35;2.40;99.90
64012;DHT22;50211;52.768;12.124;2022-11-15T02:05:01;2.50;99.90
64012;DHT22;50211;52.768;12.124;2022-11-15T02:07:28;2.50;99.90
64012;DHT22;50211;52.768;12.124;2022-11-15T02:09:55;2.60;99.90
64012;DHT22;50211;52.768;12.124;2022-11-15T02:12:21;2.60;99.90
64012;DHT22;50211;52.768;12.124;2022-11-15T02:14:51;2.60;99.90
64012;DHT22;50211;52.768;12.124;2022-11-15T02:26:28;2.60;99.90
64012;DHT22;50211;52.768;12.124;2022-11-15T02:29:26;2.70;99.90
64012;DHT22;50211;52.768;12.124;2022-11-15T02:32:06;2.70;99.90
64012;DHT22;50211;52.768;12.124;2022-11-15T02:34:50;2.70;99.90
64012;DHT22;50211;52.768;12.124;2022-11-15T02:37:33;2.70;99.90
64012;DHT22;50211;52.768;12.124;2022-11-15T02:40:15;2.70;99.90
64012;DHT22;50211;52.768;12.124;2022-11-15T02:42:52;2.70;99.90
64012;DHT22;50211;52.768;12.124;2022-11-15T02:45:40;2.70;99.90
64012;DHT22;50211;52.768;12.124;2022-11-15T02:48:09;2.70;99.90
64012;DHT22;50211;52.768;12.124;2022-11-15T02:50:36;2.70;99.90
64012;DHT22;50211;52.768;12.124;2022-11-15T02:53:02;2.70;99.90
64012;DHT22;50211;52.768;12.124;2022-11-15T02:55:34;2.70;99.90
64012;DHT22;50211;52.768;12.124;2022-11-15T02:58:21;2.80;99.90
64012;DHT22;50211;52.768;12.124;2022-11-15T03:06:57;2.80;99.90
64012;DHT22;50211;52.768;12.124;2022-11-15T03:12:12;2.90;99.90
64012;DHT22;50211;52.768;12.124;2022-11-15T03:14:51;2.90;99.90
64012;DHT22;50211;52.768;12.124;2022-11-15T03:17:23;2.90;99.90
64012;DHT22;50211;52.768;12.124;2022-11-15T03:19:54;2.90;99.90
64012;DHT22;50211;52.768;12.124;2022-11-15T03:22:24;2.90;99.90
64012;DHT22;50211;52.768;12.124;2022-11-15T03:25:02;3.00;99.90
64012;DHT22;50211;52.768;12.124;2022-11-15T03:27:33;2.90;99.90
64012;DHT22;50211;52.768;12.124;2022-11-15T03:30:04;2.80;99.90
64012;DHT22;50211;52.768;12.124;2022-11-15T03:32:34;2.80;99.90
64012;DHT22;50211;52.768;12.124;2022-11-15T03:35:06;2.80;99.90
64012;DHT22;50211;52.768;12.124;2022-11-15T03:37:40;2.90;99.90
64012;DHT22;50211;52.768;12.124;2022-11-15T03:40:07;2.90;99.90
64012;DHT22;50211;52.768;12.124;2022-11-15T03:42:47;3.00;99.90
64012;DHT22;50211;52.768;12.124;2022-11-15T03:45:15;3.00;99.90
64012;DHT22;50211;52.768;12.124;2022-11-15T03:47:48;3.00;99.90
64012;DHT22;50211;52.768;12.124;2022-11-15T03:50:18;3.00;99.90
64012;DHT22;50211;52.768;12.124;2022-11-15T03:52:46;3.00;99.90
64012;DHT22;50211;52.768;12.124;2022-11-15T03:55:15;3.00;99.90
64012;DHT22;50211;52.768;12.124;2022-11-15T03:57:41;3.00;99.90
64012;DHT22;50211;52.768;12.124;2022-11-15T04:00:08;3.00;99.90
64012;DHT22;50211;52.768;12.124;2022-11-15T04:02:33;2.90;99.90
64012;DHT22;50211;52.768;12.124;2022-11-15T04:04:59;3.00;99.90
64012;DHT22;50211;52.768;12.124;2022-11-15T04:07:24;2.90;99.90
64012;DHT22;50211;52.768;12.124;2022-11-15T04:09:50;2.90;99.90
64012;DHT22;50211;52.768;12.124;2022-11-15T04:12:38;2.90;99.90
64012;DHT22;50211;52.768;12.124;2022-11-15T04:15:07;2.90;99.90
64012;DHT22;50211;52.768;12.124;2022-11-15T04:17:49;2.90;99.90
64012;DHT22;50211;52.768;12.124;2022-11-15T04:23:06;2.90;99.90
64012;DHT22;50211;52.768;12.124;2022-11-15T04:25:52;2.90;99.90
64012;DHT22;50211;52.768;12.124;2022-11-15T04:28:19;2.90;99.90
64012;DHT22;50211;52.768;12.124;2022-11-15T04:30:45;3.00;99.90
64012;DHT22;50211;52.768;12.124;2022-11-15T04:33:10;2.90;99.90
64012;DHT22;50211;52.768;12.124;2022-11-15T04:35:36;2.90;99.90
64012;DHT22;50211;52.768;12.124;2022-11-15T04:38:03;2.80;99.90
64012;DHT22;50211;52.768;12.124;2022-11-15T04:40:28;2.80;99.90
64012;DHT22;50211;52.768;12.124;2022-11-15T04:42:54;2.80;99.90
64012;DHT22;50211;52.768;12.124;2022-11-15T04:45:20;2.80;99.90
64012;DHT22;50211;52.768;12.124;2022-11-15T04:47:46;2.90;99.90
64012;DHT22;50211;52.768;12.124;2022-11-15T04:50:12;2.90;99.90
64012;DHT22;50211;52.768;12.124;2022-11-15T04:52:41;2.80;99.90
64012;DHT22;50211;52.768;12.124;2022-11-15T04:55:08;2.90;99.90
64012;DHT22;50211;52.768;12.124;2022-11-15T04:57:33;2.90;99.90
64012;DHT22;50211;52.768;12.124;2022-11-15T04:59:59;2.90;99.90
64012;DHT22;50211;52.768;12.124;2022-11-15T05:02:24;2.90;99.90
64012;DHT22;50211;52.768;12.124;2022-11-15T05:05:10;2.80;99.90
64012;DHT22;50211;52.768;12.124;2022-11-15T05:07:35;2.80;99.90
64012;DHT22;50211;52.768;12.124;2022-11-15T05:10:01;2.80;99.90
64012;DHT22;50211;52.768;12.124;2022-11-15T05:12:26;2.80;99.90
64012;DHT22;50211;52.768;12.124;2022-11-15T05:14:51;2.80;99.90
64012;DHT22;50211;52.768;12.124;2022-11-15T05:17:17;2.80;99.90
64012;DHT22;50211;52.768;12.124;2022-11-15T05:19:42;2.80;99.90
64012;DHT22;50211;52.768;12.124;2022-11-15T05:22:08;2.80;99.90
64012;DHT22;50211;52.768;12.124;2022-11-15T05:24:33;2.70;99.90
64012;DHT22;50211;52.768;12.124;2022-11-15T05:26:59;2.70;99.90
64012;DHT22;50211;52.768;12.124;2022-11-15T05:29:24;2.70;99.90
64012;DHT22;50211;52.768;12.124;2022-11-15T05:31:50;2.60;99.90
64012;DHT22;50211;52.768;12.124;2022-11-15T05:34:16;2.60;99.90
64012;DHT22;50211;52.768;12.124;2022-11-15T05:36:43;2.60;99.90
64012;DHT22;50211;52.768;12.124;2022-11-15T05:39:10;2.70;99.90
64012;DHT22;50211;52.768;12.124;2022-11-15T05:41:59;2.70;99.90
64012;DHT22;50211;52.768;12.124;2022-11-15T05:44:26;2.70;99.90
64012;DHT22;50211;52.768;12.124;2022-11-15T05:46:53;2.60;99.90
64012;DHT22;50211;52.768;12.124;2022-11-15T05:49:23;2.50;99.90
64012;DHT22;50211;52.768;12.124;2022-11-15T05:51:49;2.60;99.90
64012;DHT22;50211;52.768;12.124;2022-11-15T05:54:17;2.60;99.90
64012;DHT22;50211;52.768;12.124;2022-11-15T05:56:44;2.70;99.90
64012;DHT22;50211;52.768;12.124;2022-11-15T05:59:11;2.70;99.90
64012;DHT22;50211;52.768;12.124;2022-11-15T06:01:37;2.70;99.90
64012;DHT22;50211;52.768;12.124;2022-11-15T06:04:03;2.60;99.90
64012;DHT22;50211;52.768;12.124;2022-11-15T06:06:29;2.60;99.90
64012;DHT22;50211;52.768;12.124;2022-11-15T06:08:54;2.60;99.90
64012;DHT22;50211;52.768;12.124;2022-11-15T06:11:20;2.60;99.90
64012;DHT22;50211;52.768;12.124;2022-11-15T06:13:45;2.60;99.90
64012;DHT22;50211;52.768;12.124;2022-11-15T06:16:11;2.60;99.90
64012;DHT22;50211;52.768;12.124;2022-11-15T06:18:36;2.60;99.90
64012;DHT22;50211;52.768;12.124;2022-11-15T06:21:03;2.60;99.90
64012;DHT22;50211;52.768;12.124;2022-11-15T06:23:31;2.60;99.90
64012;DHT22;50211;52.768;12.124;2022-11-15T06:25:58;2.70;99.90
64012;DHT22;50211;52.768;12.124;2022-11-15T06:28:24;2.70;99.90
64012;DHT22;50211;52.768;12.124;2022-11-15T06:30:49;2.60;99.90
64012;DHT22;50211;52.768;12.124;2022-11-15T06:33:15;2.60;99.90
64012;DHT22;50211;52.768;12.124;2022-11-15T06:35:40;2.60;99.90
64012;DHT22;50211;52.768;12.124;2022-11-15T06:38:08;2.60;99.90
64012;DHT22;50211;52.768;12.124;2022-11-15T06:40:35;2.60;99.90
64012;DHT22;50211;52.768;12.124;2022-11-15T06:43:02;2.50;99.90
64012;DHT22;50211;52.768;12.124;2022-11-15T06:45:27;2.40;99.90
64012;DHT22;50211;52.768;12.124;2022-11-15T06:47:53;2.50;99.90
64012;DHT22;50211;52.768;12.124;2022-11-15T06:50:19;2.50;99.90
64012;DHT22;50211;52.768;12.124;2022-11-15T06:52:44;2.50;99.90
64012;DHT22;50211;52.768;12.124;2022-11-15T06:55:10;2.50;99.90
64012;DHT22;50211;52.768;12.124;2022-11-15T06:57:36;2.50;99.90
64012;DHT22;50211;52.768;12.124;2022-11-15T07:00:04;2.50;99.90
64012;DHT22;50211;52.768;12.124;2022-11-15T07:02:30;2.40;99.90
64012;DHT22;50211;52.768;12.124;2022-11-15T07:04:55;2.40;99.90
64012;DHT22;50211;52.768;12.124;2022-11-15T07:07:21;2.40;99.90
64012;DHT22;50211;52.768;12.124;2022-11-15T07:09:46;2.40;99.90
64012;DHT22;50211;52.768;12.124;2022-11-15T07:12:12;2.40;99.90
64012;DHT22;50211;52.768;12.124;2022-11-15T07:14:37;2.40;99.90
64012;DHT22;50211;52.768;12.124;2022-11-15T07:17:04;2.50;99.90
64012;DHT22;50211;52.768;12.124;2022-11-15T07:19:30;2.50;99.90
64012;DHT22;50211;52.768;12.124;2022-11-15T07:21:56;2.60;99.90
64012;DHT22;50211;52.768;12.124;2022-11-15T07:24:21;2.60;99.90
64012;DHT22;50211;52.768;12.124;2022-11-15T07:26:47;2.60;99.90
64012;DHT22;50211;52.768;12.124;2022-11-15T07:29:12;2.70;99.90
64012;DHT22;50211;52.768;12.124;2022-11-15T07:31:38;2.70;99.90
64012;DHT22;50211;52.768;12.124;2022-11-15T07:34:04;2.70;99.90
64012;DHT22;50211;52.768;12.124;2022-11-15T07:36:29;2.70;99.90
64012;DHT22;50211;52.768;12.124;2022-11-15T07:38:55;2.70;99.90
64012;DHT22;50211;52.768;12.124;2022-11-15T07:41:20;2.80;99.90
64012;DHT22;50211;52.768;12.124;2022-11-15T07:43:46;2.80;99.90
64012;DHT22;50211;52.768;12.124;2022-11-15T07:46:11;2.90;99.90
64012;DHT22;50211;52.768;12.124;2022-11-15T07:48:38;2.90;99.90
64012;DHT22;50211;52.768;12.124;2022-11-15T07:51:05;2.90;99.90
64012;DHT22;50211;52.768;12.124;2022-11-15T07:53:31;3.00;99.90
64012;DHT22;50211;52.768;12.124;2022-11-15T07:55:56;3.20;99.90
64012;DHT22;50211;52.768;12.124;2022-11-15T07:58:22;3.40;99.90
64012;DHT22;50211;52.768;12.124;2022-11-15T08:00:47;3.50;99.90
64012;DHT22;50211;52.768;12.124;2022-11-15T08:03:14;3.70;99.90
64012;DHT22;50211;52.768;12.124;2022-11-15T08:05:41;3.80;99.90
64012;DHT22;50211;52.768;12.124;2022-11-15T08:08:08;3.90;99.90
64012;DHT22;50211;52.768;12.124;2022-11-15T08:10:34;4.00;99.90
64012;DHT22;50211;52.768;12.124;2022-11-15T08:13:03;4.10;99.90
64012;DHT22;50211;52.768;12.124;2022-11-15T08:15:29;4.40;99.90
64012;DHT22;50211;52.768;12.124;2022-11-15T08:17:56;4.70;99.90
64012;DHT22;50211;52.768;12.124;2022-11-15T08:20:23;4.90;99.90
64012;DHT22;50211;52.768;12.124;2022-11-15T08:22:49;5.20;99.90
64012;DHT22;50211;52.768;12.124;2022-11-15T08:25:15;5.50;99.90
64012;DHT22;50211;52.768;12.124;2022-11-15T08:27:41;5.90;99.90
64012;DHT22;50211;52.768;12.124;2022-11-15T08:30:07;6.30;99.90
64012;DHT22;50211;52.768;12.124;2022-11-15T08:32:32;6.80;99.90
64012;DHT22;50211;52.768;12.124;2022-11-15T08:34:58;7.10;99.90
64012;DHT22;50211;52.768;12.124;2022-11-15T08:37:23;7.40;99.90
64012;DHT22;50211;52.768;12.124;2022-11-15T08:39:49;7.60;99.90
64012;DHT22;50211;52.768;12.124;2022-11-15T08:42:14;7.60;99.90
64012;DHT22;50211;52.768;12.124;2022-11-15T08:44:41;7.50;99.90
64012;DHT22;50211;52.768;12.124;2022-11-15T08:47:07;7.20;99.90
64012;DHT22;50211;52.768;12.124;2022-11-15T08:49:35;6.90;99.90
64012;DHT22;50211;52.768;12.124;2022-11-15T08:52:01;6.80;99.90
64012;DHT22;50211;52.768;12.124;2022-11-15T08:54:26;6.70;99.90
64012;DHT22;50211;52.768;12.124;2022-11-15T08:56:52;6.80;99.90
64012;DHT22;50211;52.768;12.124;2022-11-15T08:59:17;7.00;99.90
64012;DHT22;50211;52.768;12.124;2022-11-15T09:01:43;7.20;99.90
64012;DHT22;50211;52.768;12.124;2022-11-15T09:04:08;7.00;99.90
64012;DHT22;50211;52.768;12.124;2022-11-15T09:06:34;7.10;99.90
64012;DHT22;50211;52.768;12.124;2022-11-15T09:09:01;6.90;99.90
64012;DHT22;50211;52.768;12.124;2022-11-15T09:11:26;6.90;99.90
64012;DHT22;50211;52.768;12.124;2022-11-15T09:13:53;6.90;99.90
64012;DHT22;50211;52.768;12.124;2022-11-15T09:16:18;7.00;99.90
64012;DHT22;50211;52.768;12.124;2022-11-15T09:18:44;7.00;99.90
64012;DHT22;50211;52.768;12.124;2022-11-15T09:21:10;7.20;99.90
64012;DHT22;50211;52.768;12.124;2022-11-15T09:23:35;7.20;99.90
64012;DHT22;50211;52.768;12.124;2022-11-15T09:26:02;7.40;99.90
64012;DHT22;50211;52.768;12.124;2022-11-15T09:28:29;7.50;99.90
64012;DHT22;50211;52.768;12.124;2022-11-15T09:30:58;7.70;99.90
64012;DHT22;50211;52.768;12.124;2022-11-15T09:33:25;7.80;99.90
64012;DHT22;50211;52.768;12.124;2022-11-15T09:35:50;7.90;99.90
64012;DHT22;50211;52.768;12.124;2022-11-15T09:38:17;8.00;99.90
64012;DHT22;50211;52.768;12.124;2022-11-15T09:40:42;8.30;99.90
64012;DHT22;50211;52.768;12.124;2022-11-15T09:43:32;8.60;99.90
64012;DHT22;50211;52.768;12.124;2022-11-15T09:51:24;9.30;99.90
64012;DHT22;50211;52.768;12.124;2022-11-15T09:54:11;9.50;99.90
64012;DHT22;50211;52.768;12.124;2022-11-15T09:56:42;9.60;99.90
64012;DHT22;50211;52.768;12.124;2022-11-15T10:01:47;9.80;99.90
64012;DHT22;50211;52.768;12.124;2022-11-15T10:04:15;9.80;99.90
64012;DHT22;50211;52.768;12.124;2022-11-15T10:06:52;9.90;99.90
64012;DHT22;50211;52.768;12.124;2022-11-15T10:09:24;10.00;99.90
64012;DHT22;50211;52.768;12.124;2022-11-15T10:11:51;10.20;99.90
64012;DHT22;50211;52.768;12.124;2022-11-15T10:14:25;10.30;99.90
64012;DHT22;50211;52.768;12.124;2022-11-15T10:17:33;10.40;99.90
64012;DHT22;50211;52.768;12.124;2022-11-15T10:20:28;10.40;99.90
64012;DHT22;50211;52.768;12.124;2022-11-15T10:22:58;10.50;99.90
64012;DHT22;50211;52.768;12.124;2022-11-15T10:25:26;10.60;99.90
64012;DHT22;50211;52.768;12.124;2022-11-15T10:28:22;10.60;99.90
64012;DHT22;50211;52.768;12.124;2022-11-15T10:30:53;10.70;99.90
64012;DHT22;50211;52.768;12.124;2022-11-15T10:33:32;10.80;99.90
64012;DHT22;50211;52.768;12.124;2022-11-15T10:38:52;11.00;99.90
64012;DHT22;50211;52.768;12.124;2022-11-15T10:47:05;11.10;99.90
64012;DHT22;50211;52.768;12.124;2022-11-15T10:49:32;11.10;99.90
64012;DHT22;50211;52.768;12.124;2022-11-15T10:52:02;11.10;99.90
64012;DHT22;50211;52.768;12.124;2022-11-15T10:54:42;11.10;99.90
64012;DHT22;50211;52.768;12.124;2022-11-15T10:57:29;11.20;99.90
64012;DHT22;50211;52.768;12.124;2022-11-15T11:03:00;11.20;99.90
64012;DHT22;50211;52.768;12.124;2022-11-15T11:05:39;11.20;99.90
64012;DHT22;50211;52.768;12.124;2022-11-15T11:08:21;11.30;99.90
64012;DHT22;50211;52.768;12.124;2022-11-15T11:10:55;11.30;99.90
64012;DHT22;50211;52.768;12.124;2022-11-15T11:19:09;11.50;99.90
64012;DHT22;50211;52.768;12.124;2022-11-15T11:24:54;11.50;99.90
64012;DHT22;50211;52.768;12.124;2022-11-15T11:27:43;11.50;99.90
64012;DHT22;50211;52.768;12.124;2022-11-15T11:31:00;11.50;99.90
64012;DHT22;50211;52.768;12.124;2022-11-15T11:33:58;11.70;99.90
64012;DHT22;50211;52.768;12.124;2022-11-15T11:36:40;12.00;99.90
64012;DHT22;50211;52.768;12.124;2022-11-15T11:42:10;12.10;99.90
64012;DHT22;50211;52.768;12.124;2022-11-15T11:47:32;12.20;99.90
64012;DHT22;50211;52.768;12.124;2022-11-15T11:50:20;12.20;99.90
64012;DHT22;50211;52.768;12.124;2022-11-15T11:55:26;12.40;99.90
64012;DHT22;50211;52.768;12.124;2022-11-15T11:58:08;12.60;99.90
64012;DHT22;50211;52.768;12.124;2022-11-15T12:00:41;12.70;99.90
64012;DHT22;50211;52.768;12.124;2022-11-15T12:03:14;12.70;99.90
64012;DHT22;50211;52.768;12.124;2022-11-15T12:05:51;12.70;99.90
64012;DHT22;50211;52.768;12.124;2022-11-15T12:12:09;12.80;99.90
64012;DHT22;50211;52.768;12.124;2022-11-15T12:14:45;12.90;99.90
64012;DHT22;50211;52.768;12.124;2022-11-15T12:17:11;13.10;99.90
64012;DHT22;50211;52.768;12.124;2022-11-15T12:19:38;13.40;99.90
64012;DHT22;50211;52.768;12.124;2022-11-15T12:22:24;13.50;99.90
64012;DHT22;50211;52.768;12.124;2022-11-15T12:25:05;13.60;99.90
64012;DHT22;50211;52.768;12.124;2022-11-15T12:27:50;13.60;99.90
64012;DHT22;50211;52.768;12.124;2022-11-15T12:30:21;13.70;99.90
64012;DHT22;50211;52.768;12.124;2022-11-15T12:32:55;13.80;99.90
64012;DHT22;50211;52.768;12.124;2022-11-15T12:35:39;13.80;99.90
64012;DHT22;50211;52.768;12.124;2022-11-15T12:38:09;13.60;99.90
64012;DHT22;50211;52.768;12.124;2022-11-15T12:40:38;13.40;99.90
64012;DHT22;50211;52.768;12.124;2022-11-15T12:45:40;13.10;99.90
64012;DHT22;50211;52.768;12.124;2022-11-15T13:06:47;12.50;99.90
64012;DHT22;50211;52.768;12.124;2022-11-15T13:11:58;12.50;99.90
64012;DHT22;50211;52.768;12.124;2022-11-15T13:14:45;12.40;99.90
64012;DHT22;50211;52.768;12.124;2022-11-15T13:17:30;12.40;99.90
64012;DHT22;50211;52.768;12.124;2022-11-15T13:22:43;12.30;99.90
64012;DHT22;50211;52.768;12.124;2022-11-15T13:28:18;12.20;99.90
64012;DHT22;50211;52.768;12.124;2022-11-15T13:30:53;12.10;99.90
64012;DHT22;50211;52.768;12.124;2022-11-15T13:33:25;12.00;99.90
64012;DHT22;50211;52.768;12.124;2022-11-15T13:35:56;12.00;99.90
64012;DHT22;50211;52.768;12.124;2022-11-15T13:38:29;11.90;99.90
64012;DHT22;50211;52.768;12.124;2022-11-15T13:40:55;11.90;99.90
64012;DHT22;50211;52.768;12.124;2022-11-15T13:48:31;11.70;99.90
64012;DHT22;50211;52.768;12.124;2022-11-15T13:50:59;11.60;99.90
64012;DHT22;50211;52.768;12.124;2022-11-15T13:53:25;11.50;99.90
64012;DHT22;50211;52.768;12.124;2022-11-15T13:55:52;11.50;99.90
64012;DHT22;50211;52.768;12.124;2022-11-15T13:58:19;11.40;99.90
64012;DHT22;50211;52.768;12.124;2022-11-15T14:00:45;11.30;99.90
64012;DHT22;50211;52.768;12.124;2022-11-15T14:03:24;11.30;99.90
64012;DHT22;50211;52.768;12.124;2022-11-15T14:06:13;11.20;99.90
64012;DHT22;50211;52.768;12.124;2022-11-15T14:08:42;11.20;99.90
64012;DHT22;50211;52.768;12.124;2022-11-15T14:11:22;11.10;99.90
64012;DHT22;50211;52.768;12.124;2022-11-15T14:16:38;11.00;99.90
64012;DHT22;50211;52.768;12.124;2022-11-15T14:19:05;11.00;99.90
64012;DHT22;50211;52.768;12.124;2022-11-15T14:21:31;11.00;99.90
64012;DHT22;50211;52.768;12.124;2022-11-15T14:26:41;10.90;99.90
64012;DHT22;50211;52.768;12.124;2022-11-15T14:29:29;10.90;99.90
64012;DHT22;50211;52.768;12.124;2022-11-15T14:32:20;10.90;99.90
64012;DHT22;50211;52.768;12.124;2022-11-15T14:34:46;10.80;99.90
64012;DHT22;50211;52.768;12.124;2022-11-15T14:37:33;10.70;99.90
64012;DHT22;50211;52.768;12.124;2022-11-15T14:40:04;10.70;99.90
64012;DHT22;50211;52.768;12.124;2022-11-15T14:42:30;10.60;99.90
64012;DHT22;50211;52.768;12.124;2022-11-15T14:44:56;10.50;99.90
64012;DHT22;50211;52.768;12.124;2022-11-15T14:47:21;10.40;99.90
64012;DHT22;50211;52.768;12.124;2022-11-15T14:49:47;10.30;99.90
64012;DHT22;50211;52.768;12.124;2022-11-15T14:52:32;10.20;99.90
64012;DHT22;50211;52.768;12.124;2022-11-15T14:55:00;10.10;99.90
64012;DHT22;50211;52.768;12.124;2022-11-15T14:57:26;10.10;99.90
64012;DHT22;50211;52.768;12.124;2022-11-15T14:59:52;10.00;99.90
64012;DHT22;50211;52.768;12.124;2022-11-15T15:02:20;9.90;99.90
64012;DHT22;50211;52.768;12.124;2022-11-15T15:04:46;9.80;99.90
64012;DHT22;50211;52.768;12.124;2022-11-15T15:07:12;9.80;99.90
64012;DHT22;50211;52.768;12.124;2022-11-15T15:09:37;9.70;99.90
64012;DHT22;50211;52.768;12.124;2022-11-15T15:12:04;9.70;99.90
64012;DHT22;50211;52.768;12.124;2022-11-15T15:14:30;9.50;99.90
64012;DHT22;50211;52.768;12.124;2022-11-15T15:16:55;9.40;99.90
64012;DHT22;50211;52.768;12.124;2022-11-15T15:19:21;9.20;99.90
64012;DHT22;50211;52.768;12.124;2022-11-15T15:21:46;9.10;99.90
64012;DHT22;50211;52.768;12.124;2022-11-15T15:24:15;8.90;99.90
64012;DHT22;50211;52.768;12.124;2022-11-15T15:26:40;8.90;99.90
64012;DHT22;50211;52.768;12.124;2022-11-15T15:29:06;8.90;99.90
64012;DHT22;50211;52.768;12.124;2022-11-15T15:31:34;8.90;99.90
64012;DHT22;50211;52.768;12.124;2022-11-15T15:33:59;8.80;99.90
64012;DHT22;50211;52.768;12.124;2022-11-15T15:36:25;8.70;99.90
64012;DHT22;50211;52.768;12.124;2022-11-15T15:38:50;8.60;99.90
64012;DHT22;50211;52.768;12.124;2022-11-15T15:41:16;8.50;99.90
64012;DHT22;50211;52.768;12.124;2022-11-15T15:43:42;8.40;99.90
64012;DHT22;50211;52.768;12.124;2022-11-15T15:46:10;8.40;99.90
64012;DHT22;50211;52.768;12.124;2022-11-15T15:48:36;8.40;99.90
64012;DHT22;50211;52.768;12.124;2022-11-15T15:51:03;8.30;99.90
64012;DHT22;50211;52.768;12.124;2022-11-15T15:53:29;8.30;99.90
64012;DHT22;50211;52.768;12.124;2022-11-15T15:55:55;8.30;99.90
64012;DHT22;50211;52.768;12.124;2022-11-15T15:58:21;8.30;99.90
64012;DHT22;50211;52.768;12.124;2022-11-15T16:00:46;8.30;99.90
64012;DHT22;50211;52.768;12.124;2022-11-15T16:03:12;8.30;99.90
64012;DHT22;50211;52.768;12.124;2022-11-15T16:05:37;8.20;99.90
64012;DHT22;50211;52.768;12.124;2022-11-15T16:08:03;8.20;99.90
64012;DHT22;50211;52.768;12.124;2022-11-15T16:10:32;8.10;99.90
64012;DHT22;50211;52.768;12.124;2022-11-15T16:12:59;8.10;99.90
64012;DHT22;50211;52.768;12.124;2022-11-15T16:15:27;8.00;99.90
64012;DHT22;50211;52.768;12.124;2022-11-15T16:17:57;8.10;99.90
64012;DHT22;50211;52.768;12.124;2022-11-15T16:23:01;7.90;99.90
64012;DHT22;50211;52.768;12.124;2022-11-15T16:25:27;8.00;99.90
64012;DHT22;50211;52.768;12.124;2022-11-15T16:27:53;8.00;99.90
64012;DHT22;50211;52.768;12.124;2022-11-15T16:30:20;8.00;99.90
64012;DHT22;50211;52.768;12.124;2022-11-15T16:32:46;7.90;99.90
64012;DHT22;50211;52.768;12.124;2022-11-15T16:35:12;7.90;99.90
64012;DHT22;50211;52.768;12.124;2022-11-15T16:37:38;7.80;99.90
64012;DHT22;50211;52.768;12.124;2022-11-15T16:40:26;7.80;99.90
64012;DHT22;50211;52.768;12.124;2022-11-15T16:42:52;7.80;99.90
64012;DHT22;50211;52.768;12.124;2022-11-15T16:45:17;7.80;99.90
64012;DHT22;50211;52.768;12.124;2022-11-15T16:47:43;7.70;99.90
64012;DHT22;50211;52.768;12.124;2022-11-15T16:50:22;7.80;99.90
64012;DHT22;50211;52.768;12.124;2022-11-15T16:52:53;7.70;99.90
64012;DHT22;50211;52.768;12.124;2022-11-15T16:55:20;7.60;99.90
64012;DHT22;50211;52.768;12.124;2022-11-15T16:57:46;7.60;99.90
64012;DHT22;50211;52.768;12.124;2022-11-15T17:00:12;7.60;99.90
64012;DHT22;50211;52.768;12.124;2022-11-15T17:02:41;7.60;99.90
64012;DHT22;50211;52.768;12.124;2022-11-15T17:05:07;7.60;99.90
64012;DHT22;50211;52.768;12.124;2022-11-15T17:07:33;7.60;99.90
64012;DHT22;50211;52.768;12.124;2022-11-15T17:09:58;7.60;99.90
64012;DHT22;50211;52.768;12.124;2022-11-15T17:12:24;7.60;99.90
64012;DHT22;50211;52.768;12.124;2022-11-15T17:14:49;7.70;99.90
64012;DHT22;50211;52.768;12.124;2022-11-15T17:17:14;7.80;99.90
64012;DHT22;50211;52.768;12.124;2022-11-15T17:19:40;7.80;99.90
64012;DHT22;50211;52.768;12.124;2022-11-15T17:22:05;7.90;99.90
64012;DHT22;50211;52.768;12.124;2022-11-15T17:24:31;7.80;99.90